Time;durP1;ratioP1;P1;durP2;ratioP2;P2;SDS_P1;SDS_P2;PMS_P1;PMS_P2;Temp;Humidity;BMP_temperature;BMP_pressure;BME280_temperature;BME280_humidity;BME280_pressure;Samples;Min_cycle;Max_cycle;Signal;HPM_P1;HPM_P2
2022/05/28 00:01:10;;;;;;;5.97;1.20;;;11.40;99.90;;;;;;5032110;28;20048;-70
2022/05/28 00:03:36;;;;;;;7.57;1.23;;;11.40;99.90;;;;;;5025701;28;20115;-69
2022/05/28 00:06:02;;;;;;;6.50;0.90;;;11.30;99.90;;;;;;5068762;28;20043;-69
2022/05/28 00:08:28;;;;;;;6.43;1.25;;;11.40;99.90;;;;;;5040638;28;20140;-69
2022/05/28 00:10:57;;;;;;;8.70;1.20;;;11.50;99.90;;;;;;5062356;28;20335;-70
2022/05/28 00:13:23;;;;;;;8.50;1.40;;;11.50;99.90;;;;;;5037376;28;20037;-69
2022/05/28 00:15:50;;;;;;;9.05;1.25;;;11.50;99.90;;;;;;5042847;28;20033;-70
2022/05/28 00:18:16;;;;;;;7.47;1.40;;;11.50;99.90;;;;;;5038132;28;20052;-70
2022/05/28 00:20:42;;;;;;;10.38;1.10;;;11.50;99.90;;;;;;5042693;28;20086;-70
2022/05/28 00:23:08;;;;;;;6.82;1.00;;;11.50;99.90;;;;;;5038659;28;20376;-70
2022/05/28 00:25:33;;;;;;;6.68;1.08;;;11.40;99.90;;;;;;5050509;28;20044;-70
2022/05/28 00:27:59;;;;;;;8.38;0.68;;;11.40;99.90;;;;;;5026930;28;20056;-70
2022/05/28 00:30:25;;;;;;;4.70;0.98;;;11.30;99.90;;;;;;5046489;28;20043;-69
2022/05/28 00:32:50;;;;;;;4.90;0.80;;;11.20;99.90;;;;;;5046402;28;20614;-69
2022/05/28 00:35:18;;;;;;;5.57;0.93;;;11.10;99.90;;;;;;5033376;28;20129;-70
2022/05/28 00:37:46;;;;;;;7.53;1.20;;;11.10;99.90;;;;;;5044918;28;20083;-70
2022/05/28 00:40:23;;;;;;;6.13;0.85;;;10.90;99.90;;;;;;5045172;28;20049;-70
2022/05/28 00:42:50;;;;;;;4.25;0.90;;;10.90;99.90;;;;;;5044144;28;20109;-70
2022/05/28 00:45:16;;;;;;;6.10;1.15;;;10.80;99.90;;;;;;5061937;28;20044;-70
2022/05/28 00:47:50;;;;;;;6.18;0.82;;;10.80;99.90;;;;;;5046113;28;20242;-70
2022/05/28 00:50:17;;;;;;;6.20;0.98;;;10.70;99.90;;;;;;5045242;28;20202;-70
2022/05/28 00:52:43;;;;;;;6.25;0.90;;;10.70;99.90;;;;;;5033683;28;20113;-70
2022/05/28 00:55:09;;;;;;;8.45;1.10;;;10.70;99.90;;;;;;5043220;28;20067;-70
2022/05/28 00:57:39;;;;;;;10.00;0.90;;;10.60;99.90;;;;;;5030212;28;20075;-70
2022/05/28 01:00:08;;;;;;;5.15;0.95;;;10.60;99.90;;;;;;5041339;28;20052;-70
2022/05/28 01:02:53;;;;;;;7.10;0.95;;;10.50;99.90;;;;;;5039407;28;20123;-70
2022/05/28 01:05:26;;;;;;;6.10;0.73;;;10.50;99.90;;;;;;5036939;28;20140;-70
2022/05/28 01:08:20;;;;;;;7.15;0.90;;;10.40;99.90;;;;;;5041235;28;20052;-70
2022/05/28 01:10:49;;;;;;;9.57;0.90;;;10.40;99.90;;;;;;5043380;28;20040;-70
2022/05/28 01:13:28;;;;;;;8.68;1.00;;;10.30;99.90;;;;;;5045161;28;20032;-69
2022/05/28 01:16:07;;;;;;;5.05;1.10;;;10.20;99.90;;;;;;5062953;28;20134;-69
2022/05/28 01:18:38;;;;;;;6.95;1.15;;;10.20;99.90;;;;;;5063235;28;20036;-69
2022/05/28 01:21:08;;;;;;;8.95;0.82;;;10.10;99.90;;;;;;5046698;28;20439;-69
2022/05/28 01:23:49;;;;;;;10.52;1.10;;;10.10;99.90;;;;;;5044828;28;20452;-69
2022/05/28 01:26:44;;;;;;;6.13;1.20;;;10.00;99.90;;;;;;5047606;28;20396;-69
2022/05/28 01:29:14;;;;;;;7.75;1.20;;;10.00;99.90;;;;;;5038772;28;20040;-69
2022/05/28 01:31:41;;;;;;;7.75;1.45;;;10.00;99.90;;;;;;5040832;28;20036;-69
2022/05/28 01:34:08;;;;;;;7.68;0.73;;;9.90;99.90;;;;;;5033684;28;20045;-69
2022/05/28 01:36:36;;;;;;;6.10;0.85;;;9.90;99.90;;;;;;5044310;28;20053;-70
2022/05/28 01:39:03;;;;;;;7.15;1.10;;;9.80;99.90;;;;;;5046764;28;20040;-69
2022/05/28 01:41:31;;;;;;;9.63;0.85;;;9.80;99.90;;;;;;5043454;28;20044;-69
2022/05/28 01:43:58;;;;;;;8.00;1.00;;;9.80;99.90;;;;;;5062844;28;20683;-69
2022/05/28 01:46:27;;;;;;;8.30;1.33;;;9.80;99.90;;;;;;5057789;28;20128;-69
2022/05/28 01:48:55;;;;;;;9.65;1.27;;;9.80;99.90;;;;;;5041878;28;20082;-69
2022/05/28 01:51:25;;;;;;;8.85;1.30;;;9.70;99.90;;;;;;5040413;28;20052;-69
2022/05/28 01:54:07;;;;;;;10.65;1.20;;;9.60;99.90;;;;;;5042000;28;20048;-69
2022/05/28 01:56:35;;;;;;;7.10;1.30;;;9.60;99.90;;;;;;5044071;28;20043;-69
2022/05/28 01:59:01;;;;;;;9.85;1.98;;;9.60;99.90;;;;;;5041019;28;20052;-69
2022/05/28 02:01:27;;;;;;;8.55;1.38;;;9.60;99.90;;;;;;5042789;28;20037;-69
2022/05/28 02:03:57;;;;;;;9.18;1.75;;;9.50;99.90;;;;;;5044588;28;20045;-69
2022/05/28 02:06:24;;;;;;;7.70;1.50;;;9.50;99.90;;;;;;5041142;28;20466;-69
2022/05/28 02:08:51;;;;;;;8.38;1.35;;;9.50;99.90;;;;;;5044653;28;20041;-69
2022/05/28 02:11:24;;;;;;;9.02;1.30;;;9.50;99.90;;;;;;5038925;28;20056;-68
2022/05/28 02:14:13;;;;;;;7.95;0.90;;;9.50;99.90;;;;;;5047297;28;20544;-69
2022/05/28 02:16:51;;;;;;;8.32;1.35;;;9.50;99.90;;;;;;5066721;28;20043;-69
2022/05/28 02:19:47;;;;;;;7.30;1.40;;;9.40;99.90;;;;;;5044561;28;20033;-69
2022/05/28 02:22:31;;;;;;;9.32;0.85;;;9.40;99.90;;;;;;5066067;28;20549;-69
2022/05/28 02:25:07;;;;;;;9.97;1.40;;;9.30;99.90;;;;;;5047656;28;20111;-69
2022/05/28 02:27:35;;;;;;;7.80;1.00;;;9.30;99.90;;;;;;5047698;28;20161;-69
2022/05/28 02:30:01;;;;;;;7.85;1.00;;;9.30;99.90;;;;;;5063747;28;20203;-69
2022/05/28 02:32:27;;;;;;;9.10;1.27;;;9.30;99.90;;;;;;5033771;28;20124;-69
2022/05/28 02:34:53;;;;;;;7.35;1.60;;;9.20;99.90;;;;;;5044846;28;20115;-69
2022/05/28 02:37:22;;;;;;;8.70;1.40;;;9.30;99.90;;;;;;5045570;28;20559;-68
2022/05/28 02:39:48;;;;;;;9.25;1.25;;;9.30;99.90;;;;;;5041048;28;20373;-69
2022/05/28 02:42:14;;;;;;;13.60;1.65;;;9.20;99.90;;;;;;5058426;28;20072;-69
2022/05/28 02:44:40;;;;;;;10.65;1.10;;;9.20;99.90;;;;;;5064253;28;20045;-68
2022/05/28 02:47:06;;;;;;;7.95;1.25;;;9.10;99.90;;;;;;5046674;28;20515;-68
2022/05/28 02:49:32;;;;;;;9.07;1.38;;;9.10;99.90;;;;;;5045290;28;20052;-69
2022/05/28 02:52:03;;;;;;;9.80;1.55;;;9.00;99.90;;;;;;5045202;28;20976;-69
2022/05/28 02:54:29;;;;;;;7.97;1.23;;;9.00;99.90;;;;;;5043276;28;20037;-68
2022/05/28 02:56:55;;;;;;;11.45;1.27;;;9.00;99.90;;;;;;5044627;28;20488;-69
2022/05/28 02:59:21;;;;;;;8.23;1.05;;;9.00;99.90;;;;;;5060724;28;20037;-68
2022/05/28 03:01:47;;;;;;;11.80;1.63;;;9.00;99.90;;;;;;5061309;28;20510;-68
2022/05/28 03:04:13;;;;;;;8.45;0.80;;;9.00;99.90;;;;;;5056640;28;20503;-68
2022/05/28 03:06:39;;;;;;;11.88;1.50;;;8.90;99.90;;;;;;5048099;28;20040;-68
2022/05/28 03:09:06;;;;;;;12.55;1.48;;;9.00;99.90;;;;;;5041997;28;20041;-69
2022/05/28 03:11:33;;;;;;;11.82;1.42;;;8.90;99.90;;;;;;5065578;28;20048;-68
2022/05/28 03:13:59;;;;;;;6.80;1.00;;;8.90;99.90;;;;;;5045962;28;20453;-68
2022/05/28 03:16:25;;;;;;;9.13;1.42;;;8.90;99.90;;;;;;5049829;28;20028;-68
2022/05/28 03:18:51;;;;;;;9.38;1.00;;;8.90;99.90;;;;;;5046744;28;20452;-68
2022/05/28 03:21:17;;;;;;;10.20;1.38;;;8.90;99.90;;;;;;5047264;28;20425;-68
2022/05/28 03:23:47;;;;;;;12.77;1.90;;;8.90;99.90;;;;;;5046649;28;20080;-68
2022/05/28 03:26:15;;;;;;;9.05;1.50;;;8.80;99.90;;;;;;5022415;28;20403;-68
2022/05/28 03:28:41;;;;;;;6.68;1.10;;;8.80;99.90;;;;;;5042354;28;20104;-68
2022/05/28 03:31:07;;;;;;;10.30;1.42;;;8.80;99.90;;;;;;5058839;28;20052;-68
2022/05/28 03:33:33;;;;;;;9.27;1.50;;;8.70;99.90;;;;;;5044002;28;20055;-68
2022/05/28 03:35:59;;;;;;;9.43;1.20;;;8.70;99.90;;;;;;5068258;28;20040;-68
2022/05/28 03:38:24;;;;;;;12.68;1.80;;;8.70;99.90;;;;;;5046581;28;20041;-68
2022/05/28 03:40:50;;;;;;;7.97;1.10;;;8.70;99.90;;;;;;5064436;28;20044;-68
2022/05/28 03:43:16;;;;;;;6.63;1.25;;;8.60;99.90;;;;;;5061287;28;20060;-68
2022/05/28 03:45:41;;;;;;;10.52;1.55;;;8.60;99.90;;;;;;5060688;28;20154;-68
2022/05/28 03:48:10;;;;;;;10.13;1.35;;;8.60;99.90;;;;;;5038147;28;20079;-68
2022/05/28 03:50:36;;;;;;;9.80;1.20;;;8.60;99.90;;;;;;5046756;28;20040;-68
2022/05/28 03:53:02;;;;;;;6.90;1.40;;;8.60;99.90;;;;;;5039907;28;20056;-68
2022/05/28 03:55:27;;;;;;;11.45;1.75;;;8.60;99.90;;;;;;5062883;28;20033;-68
2022/05/28 03:57:53;;;;;;;7.47;1.00;;;8.60;99.90;;;;;;5068480;28;20045;-68
2022/05/28 04:00:19;;;;;;;8.20;1.58;;;8.60;99.90;;;;;;5063961;28;20028;-68
2022/05/28 04:02:45;;;;;;;11.98;1.52;;;8.60;99.90;;;;;;5065111;28;20040;-68
2022/05/28 04:05:11;;;;;;;16.00;1.92;;;8.60;99.90;;;;;;5044255;28;20369;-68
2022/05/28 04:07:38;;;;;;;8.77;1.30;;;8.60;99.90;;;;;;5043882;28;20119;-72
2022/05/28 04:10:06;;;;;;;9.95;1.52;;;8.60;99.90;;;;;;5048838;28;20049;-68
2022/05/28 04:12:33;;;;;;;11.30;1.63;;;8.60;99.90;;;;;;5057488;28;20075;-68
2022/05/28 04:14:59;;;;;;;12.38;1.92;;;8.70;99.90;;;;;;5056889;28;20535;-68
2022/05/28 04:17:25;;;;;;;12.23;1.42;;;8.80;99.90;;;;;;5062491;28;20037;-68
2022/05/28 04:19:51;;;;;;;11.13;1.52;;;8.80;99.90;;;;;;5048038;28;20106;-68
2022/05/28 04:22:17;;;;;;;11.35;1.65;;;8.80;99.90;;;;;;5061146;28;20454;-68
2022/05/28 04:24:42;;;;;;;13.90;1.35;;;8.80;99.90;;;;;;5047230;28;20533;-68
2022/05/28 04:27:08;;;;;;;11.95;1.63;;;8.90;99.90;;;;;;5046584;28;20120;-68
2022/05/28 04:29:34;;;;;;;14.35;1.77;;;8.90;99.90;;;;;;5061684;28;20072;-68
2022/05/28 04:32:00;;;;;;;10.90;2.20;;;9.00;99.90;;;;;;5066973;28;20068;-68
2022/05/28 04:34:26;;;;;;;12.48;1.45;;;9.10;99.90;;;;;;5038723;28;20492;-68
2022/05/28 04:36:51;;;;;;;15.75;2.78;;;9.20;99.90;;;;;;5042089;28;20040;-68
2022/05/28 04:39:17;;;;;;;10.27;1.30;;;9.40;99.90;;;;;;5040864;28;20040;-68
2022/05/28 04:41:43;;;;;;;11.52;1.70;;;9.50;99.90;;;;;;5056353;28;20064;-68
2022/05/28 04:44:09;;;;;;;10.90;1.85;;;9.60;99.90;;;;;;5040757;28;20055;-68
2022/05/28 04:46:35;;;;;;;13.45;2.05;;;9.60;99.90;;;;;;5060608;28;20492;-68
2022/05/28 04:49:00;;;;;;;8.07;1.25;;;9.70;99.90;;;;;;5044190;28;20487;-68
2022/05/28 04:51:26;;;;;;;16.90;2.10;;;9.90;99.90;;;;;;5061869;28;20052;-68
2022/05/28 04:53:52;;;;;;;10.45;1.88;;;10.00;99.90;;;;;;5058406;28;20036;-68
2022/05/28 04:56:18;;;;;;;13.57;2.08;;;10.00;99.90;;;;;;5044386;28;20040;-68
2022/05/28 04:58:43;;;;;;;12.70;1.83;;;10.00;99.90;;;;;;5058132;28;20123;-68
2022/05/28 05:01:17;;;;;;;9.85;1.42;;;10.10;99.90;;;;;;5063546;28;20135;-68
2022/05/28 05:03:43;;;;;;;19.20;2.80;;;10.20;99.90;;;;;;5052035;28;20063;-68
2022/05/28 05:06:09;;;;;;;16.00;2.25;;;10.10;99.90;;;;;;5044163;28;20288;-68
2022/05/28 05:08:35;;;;;;;13.65;1.70;;;10.30;99.90;;;;;;5055765;28;20025;-68
2022/05/28 05:11:00;;;;;;;11.57;1.85;;;10.70;99.90;;;;;;5062020;28;20128;-68
2022/05/28 05:13:27;;;;;;;10.15;1.77;;;10.70;99.90;;;;;;5061328;28;20043;-68
2022/05/28 05:15:52;;;;;;;41.80;31.77;;;10.70;99.90;;;;;;5063230;28;20558;-68
2022/05/28 05:18:18;;;;;;;18.88;9.32;;;10.70;99.90;;;;;;5046645;28;20041;-68
2022/05/28 05:20:44;;;;;;;8.98;1.80;;;10.80;99.90;;;;;;5043511;28;20116;-68
2022/05/28 05:23:10;;;;;;;10.15;1.88;;;10.80;99.90;;;;;;5056047;28;20439;-68
2022/05/28 05:25:36;;;;;;;14.50;2.03;;;10.80;99.90;;;;;;5034938;28;20052;-68
2022/05/28 05:28:01;;;;;;;12.93;2.05;;;10.80;99.90;;;;;;5054178;28;20071;-68
2022/05/28 05:30:27;;;;;;;15.02;1.67;;;10.80;99.90;;;;;;5046166;28;20048;-68
2022/05/28 05:32:53;;;;;;;13.55;2.67;;;10.80;99.90;;;;;;5038758;28;20053;-68
2022/05/28 05:35:19;;;;;;;13.07;2.13;;;10.80;99.90;;;;;;5045707;28;20048;-68
2022/05/28 05:37:45;;;;;;;14.32;2.13;;;10.80;99.90;;;;;;5061649;28;20067;-68
2022/05/28 05:40:11;;;;;;;13.88;2.00;;;10.80;99.90;;;;;;5043612;28;20056;-68
2022/05/28 05:42:40;;;;;;;13.13;1.75;;;10.80;99.90;;;;;;5048016;28;20523;-68
2022/05/28 05:45:07;;;;;;;15.05;1.90;;;10.90;99.90;;;;;;5054589;28;20048;-68
2022/05/28 05:47:33;;;;;;;12.68;2.42;;;10.90;99.90;;;;;;5026451;28;20091;-68
2022/05/28 05:49:59;;;;;;;40.63;21.08;;;11.10;99.90;;;;;;5039592;28;20048;-68
2022/05/28 05:52:24;;;;;;;16.10;3.17;;;11.10;99.90;;;;;;5044067;28;20040;-68
2022/05/28 05:54:51;;;;;;;16.23;2.90;;;11.10;99.90;;;;;;5028876;28;20048;-68
2022/05/28 05:57:17;;;;;;;15.75;2.28;;;11.20;99.90;;;;;;5067432;28;20569;-68
2022/05/28 05:59:42;;;;;;;17.55;2.45;;;11.20;99.90;;;;;;5031767;28;20060;-68
2022/05/28 06:02:09;;;;;;;18.27;2.72;;;11.20;99.90;;;;;;5065183;28;20043;-68
2022/05/28 06:04:35;;;;;;;11.93;2.00;;;11.10;99.90;;;;;;5046673;28;20052;-68
2022/05/28 06:07:03;;;;;;;14.98;2.63;;;11.10;99.90;;;;;;5048359;28;20151;-68
2022/05/28 06:09:28;;;;;;;15.48;2.80;;;11.10;99.90;;;;;;5062210;28;20116;-68
2022/05/28 06:11:54;;;;;;;14.40;2.35;;;11.10;99.90;;;;;;5046844;28;20535;-68
2022/05/28 06:14:19;;;;;;;13.48;2.28;;;11.20;99.90;;;;;;5064343;28;20691;-68
2022/05/28 06:16:45;;;;;;;10.52;2.13;;;11.30;99.90;;;;;;5069546;28;20400;-68
2022/05/28 06:19:11;;;;;;;7.63;1.70;;;11.40;99.90;;;;;;5049290;28;20055;-69
2022/05/28 06:21:36;;;;;;;10.15;1.60;;;11.50;99.90;;;;;;5043631;28;20099;-68
2022/05/28 06:24:03;;;;;;;5.78;1.13;;;11.50;99.90;;;;;;5066787;28;20047;-67
2022/05/28 06:26:29;;;;;;;6.32;1.48;;;11.50;99.90;;;;;;5047468;28;20041;-68
2022/05/28 06:28:55;;;;;;;9.00;1.40;;;11.60;99.90;;;;;;5068003;28;20174;-68
2022/05/28 06:31:20;;;;;;;7.45;1.33;;;11.60;99.90;;;;;;5052959;28;20047;-68
2022/05/28 06:33:46;;;;;;;7.07;2.53;;;11.60;99.90;;;;;;5067611;28;20040;-68
2022/05/28 06:36:13;;;;;;;9.15;1.60;;;11.70;99.90;;;;;;5064405;28;20729;-67
2022/05/28 06:38:39;;;;;;;8.25;1.33;;;11.70;99.90;;;;;;5042447;28;20036;-68
2022/05/28 06:41:05;;;;;;;8.93;1.77;;;11.80;99.90;;;;;;5059752;28;20049;-69
2022/05/28 06:43:32;;;;;;;7.70;1.30;;;12.00;99.90;;;;;;5051187;28;20120;-69
2022/05/28 06:46:01;;;;;;;5.22;1.17;;;12.10;99.90;;;;;;5063561;28;20043;-69
2022/05/28 06:48:27;;;;;;;8.50;1.67;;;12.30;99.90;;;;;;5033986;28;20055;-69
2022/05/28 06:51:01;;;;;;;9.13;1.92;;;12.40;99.90;;;;;;5062147;28;20036;-69
2022/05/28 06:53:28;;;;;;;12.65;2.50;;;12.50;99.90;;;;;;5065387;28;20043;-69
2022/05/28 06:55:54;;;;;;;12.50;1.85;;;12.60;99.90;;;;;;5023388;28;20451;-69
2022/05/28 06:58:20;;;;;;;9.68;1.73;;;12.70;99.90;;;;;;5050576;28;20037;-69
2022/05/28 07:00:46;;;;;;;14.40;2.33;;;12.90;99.90;;;;;;5029970;28;20060;-69
2022/05/28 07:03:17;;;;;;;9.95;1.83;;;12.90;99.90;;;;;;5050593;28;20053;-69
2022/05/28 07:05:43;;;;;;;12.02;1.98;;;13.00;99.90;;;;;;5042348;28;20041;-69
2022/05/28 07:08:09;;;;;;;11.85;2.05;;;12.90;99.90;;;;;;5060695;28;20095;-69
2022/05/28 07:10:38;;;;;;;12.70;2.63;;;12.90;99.90;;;;;;5063787;28;20139;-69
2022/05/28 07:13:07;;;;;;;17.90;4.72;;;12.90;99.90;;;;;;5046221;28;20052;-69
2022/05/28 07:15:33;;;;;;;13.35;2.45;;;12.80;99.90;;;;;;5065248;28;20111;-69
2022/05/28 07:17:59;;;;;;;11.13;2.92;;;12.70;99.90;;;;;;5049456;28;20136;-70
2022/05/28 07:20:24;;;;;;;13.25;2.42;;;12.60;99.90;;;;;;5047029;28;20041;-71
2022/05/28 07:22:50;;;;;;;12.63;2.72;;;12.40;99.90;;;;;;5043914;28;20472;-71
2022/05/28 07:25:16;;;;;;;15.30;2.80;;;12.30;99.90;;;;;;5062612;28;20040;-71
2022/05/28 07:27:42;;;;;;;18.58;6.20;;;12.10;99.90;;;;;;5042935;28;20123;-71
2022/05/28 07:30:08;;;;;;;15.52;3.95;;;12.10;99.90;;;;;;5048569;28;20085;-71
2022/05/28 07:32:35;;;;;;;15.70;2.70;;;12.10;99.90;;;;;;5032818;28;20057;-71
2022/05/28 07:35:01;;;;;;;14.30;2.42;;;12.00;99.90;;;;;;5049095;28;20675;-73
2022/05/28 07:37:31;;;;;;;13.18;2.42;;;11.90;99.90;;;;;;5048574;28;20074;-73
2022/05/28 07:39:58;;;;;;;9.25;1.90;;;11.60;99.90;;;;;;5047046;28;20043;-73
2022/05/28 07:42:27;;;;;;;12.23;2.22;;;11.30;99.90;;;;;;5034721;28;20084;-72
2022/05/28 07:44:53;;;;;;;11.65;2.35;;;11.10;99.90;;;;;;5042858;28;20060;-73
2022/05/28 07:47:19;;;;;;;10.10;2.03;;;11.00;99.90;;;;;;5044415;28;20029;-73
2022/05/28 07:49:44;;;;;;;6.85;1.80;;;11.00;99.90;;;;;;5048970;28;20178;-73
2022/05/28 07:52:10;;;;;;;7.20;1.73;;;11.10;99.90;;;;;;5040233;28;20049;-73
2022/05/28 07:54:37;;;;;;;12.35;2.65;;;11.20;99.90;;;;;;5042680;28;20045;-74
2022/05/28 07:57:03;;;;;;;9.48;1.65;;;11.50;99.90;;;;;;5048445;28;20044;-73
2022/05/28 07:59:29;;;;;;;9.15;1.60;;;11.80;99.90;;;;;;5046898;28;20406;-73
2022/05/28 08:01:55;;;;;;;11.82;1.50;;;12.00;99.90;;;;;;5044383;28;20097;-74
2022/05/28 08:04:21;;;;;;;9.25;1.67;;;12.30;99.90;;;;;;5046482;28;20041;-73
2022/05/28 08:06:47;;;;;;;10.95;2.28;;;12.70;99.90;;;;;;5048075;28;20519;-73
2022/05/28 08:09:13;;;;;;;9.95;2.08;;;13.30;99.90;;;;;;5045844;28;20045;-74
2022/05/28 08:11:39;;;;;;;14.52;2.22;;;13.80;99.90;;;;;;5046024;28;20041;-73
2022/05/28 08:14:05;;;;;;;11.38;2.58;;;14.20;99.90;;;;;;5042398;28;20385;-73
2022/05/28 08:16:31;;;;;;;14.82;2.92;;;14.20;99.90;;;;;;5052299;28;20025;-73
2022/05/28 08:18:58;;;;;;;13.23;2.47;;;14.30;99.90;;;;;;5039998;28;20045;-72
2022/05/28 08:24:07;;;;;;;14.20;2.50;;;14.20;99.90;;;;;;5044719;28;20064;-72
2022/05/28 08:26:38;;;;;;;14.88;2.35;;;13.90;99.90;;;;;;5046783;28;20060;-72
2022/05/28 08:29:05;;;;;;;13.18;2.83;;;13.80;99.90;;;;;;5046790;28;20404;-72
2022/05/28 08:31:30;;;;;;;12.82;2.53;;;13.60;99.90;;;;;;5040798;28;20466;-73
2022/05/28 08:33:57;;;;;;;14.38;2.50;;;13.60;99.90;;;;;;5043315;28;20041;-72
2022/05/28 08:36:24;;;;;;;11.35;2.30;;;13.60;99.90;;;;;;5039499;28;20444;-71
2022/05/28 08:38:50;;;;;;;16.55;2.88;;;13.60;99.90;;;;;;5040068;28;20120;-72
2022/05/28 08:41:25;;;;;;;11.85;1.85;;;13.60;99.90;;;;;;5051067;28;20211;-72
2022/05/28 08:44:03;;;;;;;12.23;2.17;;;13.70;99.90;;;;;;5043397;28;20059;-72
2022/05/28 08:46:34;;;;;;;10.50;1.92;;;13.80;99.90;;;;;;5046641;28;20037;-73
2022/05/28 08:49:00;;;;;;;12.73;2.05;;;13.80;99.90;;;;;;5033022;28;20111;-72
2022/05/28 08:51:32;;;;;;;12.88;2.33;;;13.80;99.90;;;;;;5041360;28;20063;-72
2022/05/28 08:54:15;;;;;;;16.00;2.47;;;13.80;99.90;;;;;;5046764;28;20518;-71
2022/05/28 08:56:41;;;;;;;12.25;1.63;;;14.00;99.90;;;;;;5051481;28;20044;-71
2022/05/28 08:59:13;;;;;;;12.13;2.50;;;14.20;99.90;;;;;;5026024;28;20106;-71
2022/05/28 09:01:41;;;;;;;11.80;2.10;;;14.80;99.90;;;;;;5039898;28;20468;-72
2022/05/28 09:04:14;;;;;;;12.25;2.38;;;15.30;99.90;;;;;;5045511;28;20488;-72
2022/05/28 09:06:43;;;;;;;12.40;2.53;;;15.70;99.90;;;;;;5038180;28;20092;-72
2022/05/28 09:09:12;;;;;;;12.85;2.00;;;16.10;99.90;;;;;;5049456;28;20110;-72
2022/05/28 09:11:57;;;;;;;16.17;2.65;;;16.30;98.40;;;;;;5041036;28;20048;-72
2022/05/28 09:14:27;;;;;;;13.23;2.40;;;16.30;96.90;;;;;;5036619;28;20123;-73
2022/05/28 09:17:00;;;;;;;12.23;2.53;;;15.80;98.00;;;;;;5024193;28;20118;-73
2022/05/28 09:19:30;;;;;;;17.97;3.17;;;15.40;97.20;;;;;;5044826;28;20083;-73
2022/05/28 09:21:55;;;;;;;10.13;2.45;;;14.80;97.60;;;;;;5020942;28;20061;-72
2022/05/28 09:24:30;;;;;;;10.95;2.35;;;14.50;99.50;;;;;;5031947;28;20478;-72
2022/05/28 09:27:18;;;;;;;10.93;2.00;;;14.20;99.20;;;;;;5036674;28;20127;-72
2022/05/28 09:29:52;;;;;;;11.63;2.53;;;14.10;98.40;;;;;;5040706;28;20172;-70
2022/05/28 09:32:55;;;;;;;11.93;2.42;;;14.30;98.00;;;;;;5055712;28;20041;-71
2022/05/28 09:35:52;;;;;;;10.07;1.80;;;15.10;98.30;;;;;;5030775;28;20033;-72
2022/05/28 09:38:25;;;;;;;12.05;2.05;;;15.70;94.90;;;;;;5041395;28;20041;-71
2022/05/28 09:40:53;;;;;;;10.10;2.03;;;16.10;94.50;;;;;;5048491;28;20451;-71
2022/05/28 09:43:40;;;;;;;10.40;1.70;;;16.60;93.00;;;;;;5031070;28;20060;-71
2022/05/28 09:46:26;;;;;;;10.00;2.20;;;16.70;90.70;;;;;;5054474;28;20057;-71
2022/05/28 09:49:21;;;;;;;11.02;1.98;;;16.80;90.40;;;;;;5050504;28;20416;-72
2022/05/28 09:52:34;;;;;;;10.68;1.65;;;16.70;90.00;;;;;;5040709;28;20053;-71
2022/05/28 09:55:19;;;;;;;6.15;1.55;;;16.50;88.20;;;;;;5006065;28;20090;-73
2022/05/28 09:57:53;;;;;;;10.10;1.83;;;16.60;84.30;;;;;;5045879;28;20431;-71
2022/05/28 10:00:21;;;;;;;9.73;1.80;;;16.40;83.10;;;;;;5045846;28;20041;-72
2022/05/28 10:05:50;;;;;;;11.65;1.92;;;15.90;83.80;;;;;;5045057;28;20053;-72
2022/05/28 10:08:16;;;;;;;10.50;1.67;;;15.50;84.30;;;;;;5043742;28;20057;-71
2022/05/28 10:10:53;;;;;;;10.90;2.30;;;15.10;86.60;;;;;;5060467;28;20102;-72
2022/05/28 10:13:21;;;;;;;7.53;1.50;;;14.70;84.20;;;;;;5041589;28;20424;-72
2022/05/28 10:16:01;;;;;;;11.75;2.20;;;14.50;87.50;;;;;;5042323;28;20124;-71
2022/05/28 10:18:45;;;;;;;9.68;1.60;;;14.40;87.60;;;;;;5048688;28;20049;-71
2022/05/28 10:21:25;;;;;;;9.65;1.90;;;14.50;89.10;;;;;;5029998;28;20515;-72
2022/05/28 10:23:53;;;;;;;11.73;2.15;;;14.80;89.90;;;;;;5031081;28;20566;-70
2022/05/28 10:26:30;;;;;;;11.55;2.10;;;15.50;90.40;;;;;;5045606;28;20043;-71
2022/05/28 10:29:00;;;;;;;13.82;2.47;;;16.40;90.10;;;;;;5060493;28;20122;-71
2022/05/28 10:31:31;;;;;;;8.90;1.40;;;17.10;87.50;;;;;;5041654;28;20060;-71
2022/05/28 10:33:58;;;;;;;8.95;1.85;;;17.70;83.80;;;;;;5038376;28;20052;-71
2022/05/28 10:36:27;;;;;;;10.38;1.98;;;17.70;81.00;;;;;;5041899;28;20106;-69
2022/05/28 10:39:03;;;;;;;12.75;2.00;;;17.30;77.30;;;;;;5038149;28;20156;-69
2022/05/28 10:41:29;;;;;;;8.68;2.08;;;17.00;77.60;;;;;;5061789;28;20032;-69
2022/05/28 10:43:55;;;;;;;40.47;25.55;;;16.70;78.90;;;;;;5040342;28;20496;-67
2022/05/28 10:46:27;;;;;;;29.45;17.58;;;16.40;78.90;;;;;;5044484;28;20049;-68
2022/05/28 10:49:17;;;;;;;12.52;2.58;;;15.90;83.00;;;;;;5045230;28;20101;-68
2022/05/28 10:51:59;;;;;;;15.82;2.40;;;15.40;85.50;;;;;;5044938;28;20044;-68
2022/05/28 10:54:44;;;;;;;9.95;2.08;;;15.00;87.80;;;;;;5047549;28;20048;-68
2022/05/28 10:57:49;;;;;;;12.30;2.13;;;14.70;89.40;;;;;;5042088;28;20050;-68
2022/05/28 11:00:35;;;;;;;12.77;2.47;;;14.30;91.00;;;;;;5041592;28;20045;-73
2022/05/28 11:03:15;;;;;;;13.65;2.45;;;14.00;92.90;;;;;;5039924;28;20053;-73
2022/05/28 11:06:10;;;;;;;12.32;2.40;;;13.90;94.40;;;;;;5044989;28;20088;-72
2022/05/28 11:09:06;;;;;;;10.95;2.10;;;13.90;95.50;;;;;;5049564;28;20384;-73
2022/05/28 11:11:46;;;;;;;12.18;1.98;;;14.10;95.60;;;;;;5056240;28;20267;-71
2022/05/28 11:14:36;;;;;;;9.60;1.92;;;14.60;94.10;;;;;;5044445;28;20417;-72
2022/05/28 11:17:28;;;;;;;12.63;2.22;;;15.10;92.70;;;;;;5046721;28;20069;-72
2022/05/28 11:20:05;;;;;;;10.13;2.22;;;15.30;92.80;;;;;;5027084;28;20061;-72
2022/05/28 11:22:54;;;;;;;13.32;2.22;;;15.20;90.30;;;;;;5028705;28;20126;-71
2022/05/28 11:25:56;;;;;;;11.77;1.98;;;14.60;86.80;;;;;;5043753;28;20053;-72
2022/05/28 11:28:39;;;;;;;7.32;1.60;;;14.20;89.80;;;;;;5025955;28;20053;-71
2022/05/28 11:31:17;;;;;;;10.80;1.80;;;14.00;90.60;;;;;;5040980;28;20049;-72
2022/05/28 11:33:46;;;;;;;8.93;1.92;;;13.90;90.80;;;;;;5037818;28;20463;-72
2022/05/28 11:36:27;;;;;;;10.00;1.80;;;14.30;92.00;;;;;;5027369;28;20053;-72
2022/05/28 11:39:08;;;;;;;8.77;1.77;;;14.90;91.30;;;;;;5056566;28;20052;-70
2022/05/28 11:41:52;;;;;;;13.48;1.63;;;15.30;89.00;;;;;;5038512;28;20136;-71
2022/05/28 11:44:27;;;;;;;7.45;1.60;;;15.40;86.00;;;;;;5046323;28;20053;-73
2022/05/28 11:47:22;;;;;;;10.43;2.00;;;15.40;87.40;;;;;;5029224;28;20061;-71
2022/05/28 11:53:31;;;;;;;7.78;1.50;;;16.50;83.70;;;;;;5019413;28;20187;-72
2022/05/28 11:56:05;;;;;;;7.85;1.45;;;17.30;81.60;;;;;;5042490;28;20064;-72
2022/05/28 11:58:41;;;;;;;8.30;1.20;;;18.10;75.30;;;;;;5040768;28;20056;-72
2022/05/28 12:01:13;;;;;;;10.48;1.90;;;18.40;71.60;;;;;;5043582;28;20049;-72
2022/05/28 12:03:43;;;;;;;10.43;1.80;;;18.30;71.40;;;;;;5041246;28;20053;-73
2022/05/28 12:06:26;;;;;;;12.57;2.08;;;17.90;72.20;;;;;;5043801;28;20049;-73
2022/05/28 12:08:58;;;;;;;10.13;1.80;;;17.30;71.20;;;;;;5025940;28;20057;-74
2022/05/28 12:11:30;;;;;;;9.65;1.65;;;16.40;75.40;;;;;;5030296;28;20060;-73
2022/05/28 12:14:02;;;;;;;8.57;1.90;;;15.80;77.00;;;;;;5043173;28;20678;-73
2022/05/28 12:16:40;;;;;;;9.90;1.63;;;15.30;78.90;;;;;;5039721;28;20045;-74
2022/05/28 12:19:12;;;;;;;11.98;1.98;;;15.00;83.00;;;;;;5041816;28;20040;-71
2022/05/28 12:21:41;;;;;;;14.00;2.22;;;14.80;84.10;;;;;;5043538;28;20065;-68
2022/05/28 12:24:19;;;;;;;8.98;1.83;;;14.80;85.60;;;;;;5045719;28;20064;-69
2022/05/28 12:29:39;;;;;;;9.40;1.67;;;14.70;85.70;;;;;;5043840;28;20481;-72
2022/05/28 12:32:17;;;;;;;6.68;1.25;;;14.60;85.20;;;;;;5041751;28;20048;-71
2022/05/28 12:35:00;;;;;;;7.18;1.33;;;14.70;81.10;;;;;;5040939;28;20126;-72
2022/05/28 12:37:44;;;;;;;5.53;1.50;;;14.80;82.40;;;;;;5034197;28;20041;-71
2022/05/28 12:40:37;;;;;;;10.27;1.52;;;15.20;86.10;;;;;;5038102;28;20045;-70
2022/05/28 12:43:14;;;;;;;7.85;2.58;;;15.90;83.20;;;;;;5040636;28;20076;-71
2022/05/28 12:45:42;;;;;;;8.68;1.33;;;16.30;79.80;;;;;;5043497;28;20049;-71
2022/05/28 12:48:15;;;;;;;8.43;1.52;;;16.80;81.10;;;;;;5044711;28;20146;-70
2022/05/28 12:50:59;;;;;;;8.63;1.77;;;17.40;76.20;;;;;;5040675;28;20053;-72
2022/05/28 12:53:27;;;;;;;7.97;1.67;;;18.00;77.90;;;;;;5041843;28;20077;-72
2022/05/28 12:56:06;;;;;;;7.88;1.85;;;18.20;73.70;;;;;;5040893;28;20045;-72
2022/05/28 12:58:34;;;;;;;8.65;1.40;;;18.20;74.00;;;;;;5036647;28;20132;-71
2022/05/28 13:01:05;;;;;;;9.23;1.40;;;18.20;72.90;;;;;;5043775;28;20080;-72
2022/05/28 13:03:37;;;;;;;6.75;1.15;;;18.10;70.10;;;;;;5034448;28;20049;-73
2022/05/28 13:06:22;;;;;;;6.07;1.20;;;18.10;66.90;;;;;;5041323;28;20136;-72
2022/05/28 13:09:11;;;;;;;5.82;1.25;;;18.10;66.70;;;;;;5032240;28;20144;-72
2022/05/28 13:11:54;;;;;;;8.10;1.55;;;18.20;67.30;;;;;;5041565;28;20611;-74
2022/05/28 13:14:20;;;;;;;7.72;1.67;;;18.20;66.30;;;;;;5041352;28;20124;-73